JAF248 LRTR-LATI
Flight info
| Callsign | JAF248 |
|---|---|
| Flight time | 0h 52m |
| Altitude | 36000 |
| Route | MAVIT N188 DONIV DCT MOJ DCT POD DCT RETRA DCT INLOT |
| Aircraft | B738/M-SDE2E3FGHIRWXY/LB1 |
Departure
| Time | 2026-04-26 18:38 |
|---|---|
| Airport | Timișoara Traian Vuia International Airport (LRTR) |
Arrival
| Time | 2026-04-26 19:31 |
|---|---|
| Airport | Tirana International Airport Mother Teresa (LATI) |
| Time | Latitude | Longitude | Altitude | Speed | Heading |
|---|---|---|---|---|---|
| 2026-04-26 18:38 | 45.78626 | 21.40427 | 4309 ft | 157 kts | 98° |
| 2026-04-26 18:38 | 45.78409 | 21.42036 | 4591 ft | 173 kts | 93° |
| 2026-04-26 18:38 | 45.78253 | 21.43827 | 4865 ft | 190 kts | 90° |
| 2026-04-26 18:39 | 45.78114 | 21.45811 | 5112 ft | 211 kts | 94° |
| 2026-04-26 18:39 | 45.77515 | 21.47847 | 5317 ft | 239 kts | 125° |
| 2026-04-26 18:39 | 45.76056 | 21.49171 | 5541 ft | 263 kts | 162° |
| 2026-04-26 18:39 | 45.74214 | 21.49256 | 5922 ft | 270 kts | 186° |
| 2026-04-26 18:40 | 45.72361 | 21.48772 | 6045 ft | 272 kts | 194° |
| 2026-04-26 18:40 | 45.70523 | 21.48125 | 6046 ft | 272 kts | 193° |
| 2026-04-26 18:40 | 45.68664 | 21.47643 | 6074 ft | 272 kts | 189° |
| 2026-04-26 18:40 | 45.66782 | 21.47212 | 6525 ft | 274 kts | 194° |
| 2026-04-26 18:41 | 45.64922 | 21.46519 | 7080 ft | 283 kts | 197° |
| 2026-04-26 18:41 | 45.62977 | 21.45776 | 7591 ft | 294 kts | 198° |
| 2026-04-26 18:41 | 45.60989 | 21.45009 | 8299 ft | 298 kts | 198° |
| 2026-04-26 18:41 | 45.58969 | 21.44230 | 9037 ft | 302 kts | 198° |
| 2026-04-26 18:42 | 45.56929 | 21.43445 | 9783 ft | 305 kts | 199° |
| 2026-04-26 18:42 | 45.54864 | 21.42646 | 10509 ft | 309 kts | 199° |
| 2026-04-26 18:42 | 45.52755 | 21.41824 | 11049 ft | 322 kts | 199° |
| 2026-04-26 18:42 | 45.50634 | 21.41002 | 11347 ft | 341 kts | 198° |
| 2026-04-26 18:43 | 45.48282 | 21.40097 | 11683 ft | 358 kts | 198° |
| 2026-04-26 18:43 | 45.46082 | 21.39254 | 12201 ft | 365 kts | 198° |
| 2026-04-26 18:43 | 45.43613 | 21.38308 | 12928 ft | 369 kts | 198° |
| 2026-04-26 18:43 | 45.41149 | 21.37367 | 13586 ft | 374 kts | 198° |
| 2026-04-26 18:44 | 45.38622 | 21.36404 | 13920 ft | 378 kts | 198° |
| 2026-04-26 18:44 | 45.36063 | 21.35428 | 14399 ft | 382 kts | 198° |
| 2026-04-26 18:44 | 45.33507 | 21.34451 | 15321 ft | 380 kts | 198° |
| 2026-04-26 18:44 | 45.30909 | 21.33462 | 16030 ft | 385 kts | 198° |
| 2026-04-26 18:45 | 45.28301 | 21.32470 | 16717 ft | 389 kts | 198° |
| 2026-04-26 18:45 | 45.26026 | 21.31605 | 17340 ft | 391 kts | 198° |
| 2026-04-26 18:45 | 45.23475 | 21.30640 | 17971 ft | 396 kts | 198° |
| 2026-04-26 18:45 | 45.20775 | 21.29760 | 18621 ft | 400 kts | 194° |
| 2026-04-26 18:46 | 45.18025 | 21.29013 | 19280 ft | 404 kts | 193° |
| 2026-04-26 18:46 | 45.15285 | 21.28291 | 19881 ft | 408 kts | 194° |
| 2026-04-26 18:46 | 45.12483 | 21.27529 | 20498 ft | 411 kts | 194° |
| 2026-04-26 18:46 | 45.09668 | 21.26749 | 21091 ft | 414 kts | 194° |
| 2026-04-26 18:47 | 45.06824 | 21.25953 | 21662 ft | 418 kts | 194° |
| 2026-04-26 18:47 | 45.03969 | 21.25136 | 22232 ft | 421 kts | 194° |
| 2026-04-26 18:47 | 45.01084 | 21.24317 | 22762 ft | 424 kts | 194° |
| 2026-04-26 18:47 | 44.98180 | 21.23497 | 23298 ft | 427 kts | 194° |
| 2026-04-26 18:48 | 44.95253 | 21.22672 | 23827 ft | 430 kts | 194° |
| 2026-04-26 18:48 | 44.92306 | 21.21842 | 24315 ft | 433 kts | 194° |
| 2026-04-26 18:48 | 44.89346 | 21.21011 | 24853 ft | 435 kts | 194° |
| 2026-04-26 18:48 | 44.86379 | 21.20178 | 25391 ft | 436 kts | 194° |
| 2026-04-26 18:49 | 44.83395 | 21.19340 | 25877 ft | 438 kts | 194° |
| 2026-04-26 18:49 | 44.80401 | 21.18501 | 26342 ft | 440 kts | 194° |
| 2026-04-26 18:49 | 44.77419 | 21.17519 | 26823 ft | 439 kts | 199° |
| 2026-04-26 18:49 | 44.74551 | 21.16057 | 27259 ft | 438 kts | 206° |
| 2026-04-26 18:50 | 44.71828 | 21.14126 | 27659 ft | 438 kts | 213° |
| 2026-04-26 18:50 | 44.69219 | 21.11902 | 28071 ft | 439 kts | 216° |
| 2026-04-26 18:50 | 44.66650 | 21.09546 | 28475 ft | 440 kts | 216° |
| 2026-04-26 18:50 | 44.64086 | 21.07181 | 28873 ft | 442 kts | 216° |
| 2026-04-26 18:51 | 44.61506 | 21.04814 | 29267 ft | 443 kts | 216° |
| 2026-04-26 18:51 | 44.58915 | 21.02450 | 29632 ft | 445 kts | 216° |
| 2026-04-26 18:51 | 44.56315 | 21.00085 | 29985 ft | 446 kts | 216° |
| 2026-04-26 18:51 | 44.53744 | 20.97752 | 30306 ft | 448 kts | 216° |
| 2026-04-26 18:52 | 44.51087 | 20.95346 | 30689 ft | 448 kts | 215° |
| 2026-04-26 18:52 | 44.49351 | 20.93777 | 30997 ft | 447 kts | 215° |
| 2026-04-26 18:52 | 44.45900 | 20.90659 | 31592 ft | 444 kts | 216° |
| 2026-04-26 18:52 | 44.43313 | 20.88287 | 31987 ft | 444 kts | 216° |
| 2026-04-26 18:53 | 44.40732 | 20.85931 | 32398 ft | 442 kts | 216° |
| 2026-04-26 18:53 | 44.38156 | 20.83591 | 32806 ft | 441 kts | 215° |
| 2026-04-26 18:53 | 44.35584 | 20.81261 | 33190 ft | 440 kts | 215° |
| 2026-04-26 18:53 | 44.33015 | 20.78940 | 33559 ft | 439 kts | 215° |
| 2026-04-26 18:54 | 44.30455 | 20.76631 | 33945 ft | 438 kts | 215° |
| 2026-04-26 18:54 | 44.27892 | 20.74325 | 34287 ft | 437 kts | 215° |
| 2026-04-26 18:54 | 44.25335 | 20.72026 | 34643 ft | 436 kts | 215° |
| 2026-04-26 18:54 | 44.22781 | 20.69732 | 34964 ft | 436 kts | 215° |
| 2026-04-26 18:55 | 44.20227 | 20.67443 | 35276 ft | 436 kts | 215° |
| 2026-04-26 18:55 | 44.17679 | 20.65161 | 35616 ft | 435 kts | 215° |
| 2026-04-26 18:55 | 44.15131 | 20.62881 | 35922 ft | 435 kts | 215° |
| 2026-04-26 18:55 | 44.12586 | 20.60607 | 36156 ft | 436 kts | 215° |
| 2026-04-26 18:56 | 44.07452 | 20.56025 | 36166 ft | 439 kts | 215° |
| 2026-04-26 18:56 | 44.02333 | 20.51467 | 36172 ft | 435 kts | 215° |
| 2026-04-26 18:57 | 43.98107 | 20.47711 | 36172 ft | 434 kts | 215° |
| 2026-04-26 18:57 | 43.92173 | 20.42449 | 36171 ft | 435 kts | 215° |
| 2026-04-26 18:58 | 43.87063 | 20.37927 | 36171 ft | 435 kts | 215° |
| 2026-04-26 18:58 | 43.81957 | 20.33418 | 36171 ft | 435 kts | 214° |
| 2026-04-26 18:59 | 43.76850 | 20.28917 | 36170 ft | 435 kts | 214° |
| 2026-04-26 18:59 | 43.71742 | 20.24425 | 36169 ft | 435 kts | 214° |
| 2026-04-26 19:00 | 43.66630 | 20.19938 | 36168 ft | 435 kts | 214° |
| 2026-04-26 19:00 | 43.61515 | 20.15458 | 36166 ft | 435 kts | 214° |
| 2026-04-26 19:01 | 43.56391 | 20.10979 | 36165 ft | 435 kts | 214° |
| 2026-04-26 19:01 | 43.51277 | 20.06518 | 36162 ft | 435 kts | 214° |
| 2026-04-26 19:02 | 43.46178 | 20.02080 | 35764 ft | 433 kts | 214° |
| 2026-04-26 19:02 | 43.43647 | 19.99879 | 35350 ft | 428 kts | 214° |
| 2026-04-26 19:02 | 43.41947 | 19.98403 | 35049 ft | 426 kts | 214° |
| 2026-04-26 19:03 | 43.38646 | 19.95539 | 34458 ft | 422 kts | 214° |
| 2026-04-26 19:03 | 43.36169 | 19.93392 | 34000 ft | 419 kts | 214° |
| 2026-04-26 19:03 | 43.33712 | 19.91264 | 33555 ft | 416 kts | 214° |
| 2026-04-26 19:03 | 43.31268 | 19.89150 | 33108 ft | 413 kts | 214° |
| 2026-04-26 19:04 | 43.28839 | 19.87052 | 32656 ft | 411 kts | 214° |
| 2026-04-26 19:04 | 43.26426 | 19.84968 | 32219 ft | 409 kts | 214° |
| 2026-04-26 19:04 | 43.24028 | 19.82900 | 31797 ft | 406 kts | 214° |
| 2026-04-26 19:04 | 43.21642 | 19.80840 | 31369 ft | 403 kts | 214° |
| 2026-04-26 19:05 | 43.16928 | 19.76750 | 30539 ft | 399 kts | 214° |
| 2026-04-26 19:05 | 43.14614 | 19.74760 | 30123 ft | 397 kts | 214° |
| 2026-04-26 19:05 | 43.12278 | 19.72758 | 29727 ft | 394 kts | 213° |
| 2026-04-26 19:06 | 43.09961 | 19.70775 | 29323 ft | 392 kts | 214° |
| 2026-04-26 19:06 | 43.07649 | 19.68799 | 28894 ft | 390 kts | 214° |
| 2026-04-26 19:06 | 43.05350 | 19.66835 | 28482 ft | 388 kts | 214° |
| 2026-04-26 19:06 | 43.03061 | 19.64883 | 28069 ft | 386 kts | 214° |
| 2026-04-26 19:07 | 43.00786 | 19.62942 | 27664 ft | 384 kts | 214° |
| 2026-04-26 19:07 | 42.98523 | 19.61013 | 27255 ft | 382 kts | 214° |
| 2026-04-26 19:07 | 42.96277 | 19.59100 | 26857 ft | 380 kts | 214° |
| 2026-04-26 19:07 | 42.93991 | 19.57302 | 26452 ft | 379 kts | 209° |
| 2026-04-26 19:08 | 42.91598 | 19.55793 | 26051 ft | 378 kts | 205° |
| 2026-04-26 19:08 | 42.89171 | 19.54408 | 25654 ft | 376 kts | 205° |
| 2026-04-26 19:08 | 42.86761 | 19.53040 | 25261 ft | 374 kts | 205° |
| 2026-04-26 19:08 | 42.84363 | 19.51669 | 24866 ft | 372 kts | 205° |
| 2026-04-26 19:09 | 42.82019 | 19.50323 | 24488 ft | 370 kts | 205° |
| 2026-04-26 19:09 | 42.79662 | 19.48968 | 24098 ft | 368 kts | 205° |
| 2026-04-26 19:09 | 42.77308 | 19.47611 | 23713 ft | 365 kts | 205° |
| 2026-04-26 19:09 | 42.74973 | 19.46265 | 23333 ft | 363 kts | 205° |
| 2026-04-26 19:10 | 42.72654 | 19.44929 | 22952 ft | 361 kts | 205° |
| 2026-04-26 19:10 | 42.70344 | 19.43598 | 22549 ft | 360 kts | 205° |
| 2026-04-26 19:10 | 42.68054 | 19.42271 | 22261 ft | 356 kts | 206° |
| 2026-04-26 19:10 | 42.65791 | 19.40940 | 22005 ft | 352 kts | 206° |
| 2026-04-26 19:11 | 42.63546 | 19.39634 | 21757 ft | 350 kts | 205° |
| 2026-04-26 19:11 | 42.61302 | 19.38338 | 21512 ft | 351 kts | 205° |
| 2026-04-26 19:11 | 42.59047 | 19.37039 | 21265 ft | 353 kts | 205° |
| 2026-04-26 19:11 | 42.56787 | 19.35742 | 21019 ft | 352 kts | 205° |
| 2026-04-26 19:12 | 42.55296 | 19.34886 | 20858 ft | 351 kts | 205° |
| 2026-04-26 19:12 | 42.53056 | 19.33603 | 20615 ft | 349 kts | 205° |
| 2026-04-26 19:12 | 42.50825 | 19.32326 | 20374 ft | 348 kts | 205° |
| 2026-04-26 19:12 | 42.48599 | 19.31052 | 20133 ft | 346 kts | 205° |
| 2026-04-26 19:13 | 42.46373 | 19.29780 | 19893 ft | 345 kts | 205° |
| 2026-04-26 19:13 | 42.44163 | 19.28517 | 19654 ft | 344 kts | 205° |
| 2026-04-26 19:13 | 42.41964 | 19.27261 | 19416 ft | 343 kts | 204° |
| 2026-04-26 19:13 | 42.39686 | 19.26302 | 19172 ft | 344 kts | 190° |
| 2026-04-26 19:14 | 42.37289 | 19.26315 | 18938 ft | 347 kts | 173° |
| 2026-04-26 19:14 | 42.34956 | 19.27151 | 18625 ft | 347 kts | 160° |
| 2026-04-26 19:14 | 42.32733 | 19.28419 | 18333 ft | 345 kts | 158° |
| 2026-04-26 19:14 | 42.31269 | 19.29243 | 18142 ft | 344 kts | 159° |
| 2026-04-26 19:15 | 42.28287 | 19.30773 | 17763 ft | 341 kts | 160° |
| 2026-04-26 19:15 | 42.26096 | 19.31868 | 17488 ft | 339 kts | 160° |
| 2026-04-26 19:15 | 42.23889 | 19.32971 | 17223 ft | 337 kts | 160° |
| 2026-04-26 19:15 | 42.21707 | 19.34057 | 17118 ft | 330 kts | 161° |
| 2026-04-26 19:16 | 42.19577 | 19.35074 | 17106 ft | 319 kts | 161° |
| 2026-04-26 19:16 | 42.17525 | 19.36047 | 17100 ft | 307 kts | 161° |
| 2026-04-26 19:16 | 42.15552 | 19.36982 | 17024 ft | 294 kts | 161° |
| 2026-04-26 19:16 | 42.13634 | 19.37892 | 16783 ft | 291 kts | 161° |
| 2026-04-26 19:17 | 42.11731 | 19.38793 | 16539 ft | 289 kts | 161° |
| 2026-04-26 19:17 | 42.09833 | 19.39693 | 16271 ft | 288 kts | 161° |
| 2026-04-26 19:17 | 42.07953 | 19.40583 | 16017 ft | 286 kts | 161° |
| 2026-04-26 19:17 | 42.06080 | 19.41469 | 15754 ft | 284 kts | 161° |
| 2026-04-26 19:18 | 42.04215 | 19.42352 | 15484 ft | 283 kts | 161° |
| 2026-04-26 19:18 | 42.02380 | 19.43220 | 15220 ft | 282 kts | 161° |
| 2026-04-26 19:18 | 42.00532 | 19.44093 | 14954 ft | 281 kts | 161° |
| 2026-04-26 19:18 | 41.98687 | 19.44962 | 14712 ft | 279 kts | 162° |
| 2026-04-26 19:19 | 41.96822 | 19.45647 | 14444 ft | 276 kts | 168° |
| 2026-04-26 19:19 | 41.94960 | 19.46123 | 13975 ft | 271 kts | 171° |
| 2026-04-26 19:19 | 41.93095 | 19.46538 | 13403 ft | 271 kts | 171° |
| 2026-04-26 19:19 | 41.91236 | 19.46959 | 12880 ft | 269 kts | 171° |
| 2026-04-26 19:20 | 41.89400 | 19.47381 | 12361 ft | 267 kts | 171° |
| 2026-04-26 19:20 | 41.88192 | 19.47662 | 12025 ft | 265 kts | 171° |
| 2026-04-26 19:20 | 41.85793 | 19.48224 | 11328 ft | 263 kts | 170° |
| 2026-04-26 19:20 | 41.83992 | 19.48648 | 10755 ft | 263 kts | 170° |
| 2026-04-26 19:21 | 41.82180 | 19.49075 | 10167 ft | 267 kts | 170° |
| 2026-04-26 19:21 | 41.80336 | 19.49510 | 9834 ft | 268 kts | 169° |
| 2026-04-26 19:21 | 41.78522 | 19.49939 | 9690 ft | 261 kts | 168° |
| 2026-04-26 19:21 | 41.76736 | 19.50361 | 9415 ft | 260 kts | 168° |
| 2026-04-26 19:22 | 41.74946 | 19.50784 | 9102 ft | 261 kts | 168° |
| 2026-04-26 19:22 | 41.73160 | 19.51207 | 8814 ft | 260 kts | 167° |
| 2026-04-26 19:22 | 41.71381 | 19.51628 | 8547 ft | 259 kts | 167° |
| 2026-04-26 19:22 | 41.69611 | 19.52046 | 8265 ft | 258 kts | 167° |
| 2026-04-26 19:23 | 41.67849 | 19.52463 | 8006 ft | 256 kts | 168° |
| 2026-04-26 19:23 | 41.66183 | 19.52913 | 7945 ft | 243 kts | 161° |
| 2026-04-26 19:23 | 41.64805 | 19.54029 | 7855 ft | 223 kts | 128° |
| 2026-04-26 19:23 | 41.64172 | 19.55792 | 7766 ft | 203 kts | 101° |
| 2026-04-26 19:24 | 41.64028 | 19.57570 | 7665 ft | 188 kts | 88° |
| 2026-04-26 19:24 | 41.64099 | 19.59297 | 7428 ft | 180 kts | 83° |
| 2026-04-26 19:24 | 41.64373 | 19.62608 | 6596 ft | 182 kts | 82° |
| 2026-04-26 19:25 | 41.64504 | 19.64288 | 6208 ft | 181 kts | 82° |
| 2026-04-26 19:25 | 41.64590 | 19.65409 | 6062 ft | 175 kts | 82° |
| 2026-04-26 19:25 | 41.64418 | 19.67444 | 5785 ft | 170 kts | 120° |
| 2026-04-26 19:25 | 41.63466 | 19.68362 | 5502 ft | 171 kts | 155° |
| 2026-04-26 19:26 | 41.62328 | 19.68811 | 5236 ft | 171 kts | 164° |
| 2026-04-26 19:26 | 41.61165 | 19.69134 | 4953 ft | 170 kts | 166° |
| 2026-04-26 19:26 | 41.60004 | 19.69446 | 4666 ft | 170 kts | 168° |
| 2026-04-26 19:26 | 41.58846 | 19.69687 | 4388 ft | 166 kts | 171° |
| 2026-04-26 19:27 | 41.57697 | 19.69876 | 4001 ft | 167 kts | 173° |
| 2026-04-26 19:27 | 41.56545 | 19.70046 | 3638 ft | 166 kts | 173° |
| 2026-04-26 19:27 | 41.55401 | 19.70206 | 3280 ft | 165 kts | 174° |
| 2026-04-26 19:27 | 41.54269 | 19.70360 | 3025 ft | 161 kts | 174° |
| 2026-04-26 19:28 | 41.53163 | 19.70509 | 2960 ft | 160 kts | 174° |
| 2026-04-26 19:28 | 41.52048 | 19.70658 | 2977 ft | 161 kts | 174° |
| 2026-04-26 19:28 | 41.50944 | 19.70805 | 2983 ft | 161 kts | 174° |
| 2026-04-26 19:28 | 41.49848 | 19.70951 | 2843 ft | 157 kts | 174° |
| 2026-04-26 19:29 | 41.48772 | 19.71095 | 2547 ft | 155 kts | 174° |
| 2026-04-26 19:29 | 41.47703 | 19.71237 | 2221 ft | 153 kts | 174° |
| 2026-04-26 19:29 | 41.46650 | 19.71377 | 1910 ft | 151 kts | 174° |
| 2026-04-26 19:29 | 41.45606 | 19.71516 | 1590 ft | 149 kts | 175° |
| 2026-04-26 19:30 | 41.44587 | 19.71648 | 1441 ft | 145 kts | 175° |
| 2026-04-26 19:30 | 41.43567 | 19.71822 | 959 ft | 154 kts | 172° |
| 2026-04-26 19:30 | 41.42457 | 19.71957 | 155 ft | 171 kts | 177° |
| 2026-04-26 19:30 | 41.41711 | 19.72017 | 117 ft | 161 kts | 167° |
| 2026-04-26 19:31 | 41.40468 | 19.72197 | 117 ft | 102 kts | 172° |
| 2026-04-26 19:31 | 41.40143 | 19.72098 | 116 ft | 19 kts | 304° |
| 2026-04-26 19:31 | 41.40217 | 19.72071 | 116 ft | 12 kts | 346° |
| 2026-04-26 19:31 | 41.40286 | 19.72002 | 116 ft | 11 kts | 306° |
| 2026-04-26 19:32 | 41.40305 | 19.71918 | 116 ft | 12 kts | 284° |
| 2026-04-26 19:32 | 41.40338 | 19.71829 | 116 ft | 12 kts | 320° |
| 2026-04-26 19:32 | 41.40462 | 19.71789 | 116 ft | 22 kts | 352° |
| 2026-04-26 19:32 | 41.40623 | 19.71772 | 116 ft | 25 kts | 6° |
| 2026-04-26 19:33 | 41.40771 | 19.71745 | 116 ft | 21 kts | 354° |
| 2026-04-26 19:33 | 41.40910 | 19.71725 | 116 ft | 20 kts | 352° |
| 2026-04-26 19:33 | 41.41041 | 19.71711 | 116 ft | 19 kts | 354° |
| 2026-04-26 19:33 | 41.41170 | 19.71697 | 116 ft | 18 kts | 354° |
| 2026-04-26 19:34 | 41.41295 | 19.71677 | 116 ft | 18 kts | 352° |
| 2026-04-26 19:34 | 41.41418 | 19.71659 | 116 ft | 18 kts | 357° |
| 2026-04-26 19:34 | 41.41540 | 19.71644 | 116 ft | 17 kts | 355° |
| 2026-04-26 19:34 | 41.41659 | 19.71628 | 116 ft | 17 kts | 356° |
| 2026-04-26 19:35 | 41.41778 | 19.71612 | 116 ft | 17 kts | 351° |
| 2026-04-26 19:35 | 41.41897 | 19.71593 | 116 ft | 17 kts | 354° |
| 2026-04-26 19:35 | 41.42014 | 19.71572 | 116 ft | 17 kts | 351° |
| 2026-04-26 19:35 | 41.42070 | 19.71519 | 116 ft | 0 kts | 258° |
| 2026-04-26 19:36 | 41.42070 | 19.71518 | 116 ft | 0 kts | 258° |
| 2026-04-26 19:38 | 41.42070 | 19.71517 | 116 ft | 0 kts | 258° |
| 2026-04-26 19:38 | 41.42069 | 19.71516 | 116 ft | 1 kts | 265° |
| 2026-04-26 19:38 | 41.42071 | 19.71513 | 116 ft | 0 kts | 265° |
| 2026-04-26 19:39 | 41.42071 | 19.71510 | 116 ft | 0 kts | 265° |
| 2026-04-26 19:39 | 41.42071 | 19.71517 | 116 ft | 0 kts | 265° |